Time;durP1;ratioP1;P1;durP2;ratioP2;P2;SDS_P1;SDS_P2;PMS_P1;PMS_P2;Temp;Humidity;BMP_temperature;BMP_pressure;BME280_temperature;BME280_humidity;BME280_pressure;Samples;Min_cycle;Max_cycle;Signal;HPM_P1;HPM_P2
2021/10/24 00:02:04;;;;;;;15.35;2.92;;;;;;;;;;5065144;28;20083;-68
2021/10/24 00:04:31;;;;;;;17.42;3.70;;;;;;;;;;5062679;28;20678;-67
2021/10/24 00:06:58;;;;;;;24.13;3.17;;;;;;;;;;5062510;28;20060;-67
2021/10/24 00:09:24;;;;;;;13.05;2.92;;;;;;;;;;5065368;28;20057;-67
2021/10/24 00:11:51;;;;;;;11.25;3.03;;;;;;;;;;5067185;28;20120;-67
2021/10/24 00:14:18;;;;;;;10.93;3.08;;;;;;;;;;5061709;28;20088;-67
2021/10/24 00:16:44;;;;;;;26.65;3.80;;;;;;;;;;5060513;28;20048;-67
2021/10/24 00:19:11;;;;;;;17.83;2.80;;;;;;;;;;5055691;28;20067;-67
2021/10/24 00:21:38;;;;;;;16.83;3.00;;;;;;;;;;5057847;28;20596;-67
2021/10/24 00:24:04;;;;;;;13.90;3.53;;;;;;;;;;5058252;28;20556;-67
2021/10/24 00:26:31;;;;;;;11.03;3.10;;;;;;;;;;5062007;28;20091;-67
2021/10/24 00:28:57;;;;;;;16.80;3.83;;;;;;;;;;5062815;28;20379;-67
2021/10/24 00:31:24;;;;;;;14.80;2.78;;;;;;;;;;5063855;28;20084;-67
2021/10/24 00:33:52;;;;;;;14.32;3.10;;;;;;;;;;5057915;28;20121;-67
2021/10/24 00:36:19;;;;;;;;;;;;;;;;;;5059264;28;20481;-67
2021/10/24 00:38:45;;;;;;;15.20;3.10;;;;;;;;;;5067531;28;19971;-67
2021/10/24 00:41:12;;;;;;;13.60;2.95;;;;;;;;;;5069777;28;20055;-67
2021/10/24 00:43:38;;;;;;;13.38;2.80;;;;;;;;;;5058899;28;20060;-67
2021/10/24 00:46:05;;;;;;;13.15;2.70;;;;;;;;;;5067137;28;20139;-67
2021/10/24 00:48:50;;;;;;;16.25;2.72;;;;;;;;;;5063934;28;20052;-67
2021/10/24 00:51:17;;;;;;;19.63;2.90;;;;;;;;;;5067603;28;20080;-67
2021/10/24 00:53:44;;;;;;;13.98;2.72;;;;;;;;;;5067292;28;20084;-67
2021/10/24 00:56:10;;;;;;;19.30;2.70;;;;;;;;;;5063964;28;20548;-67
2021/10/24 00:58:38;;;;;;;26.73;3.85;;;;;;;;;;5064964;28;20067;-67
2021/10/24 01:01:04;;;;;;;17.00;2.50;;;;;;;;;;5068266;28;20092;-67
2021/10/24 01:03:31;;;;;;;14.45;2.45;;;;;;;;;;5064723;28;20045;-67
2021/10/24 01:06:00;;;;;;;11.85;2.40;;;;;;;;;;5066456;28;20053;-67
2021/10/24 01:08:27;;;;;;;15.10;2.78;;;;;;;;;;5065590;28;20124;-67
2021/10/24 01:10:54;;;;;;;7.13;2.53;;;;;;;;;;5070088;28;20053;-67
2021/10/24 01:13:20;;;;;;;14.60;2.55;;;;;;;;;;5064530;28;20086;-67
2021/10/24 01:15:47;;;;;;;11.15;2.33;;;;;;;;;;5064861;28;20052;-67
2021/10/24 01:18:13;;;;;;;10.90;2.67;;;;;;;;;;5062023;28;20083;-68
2021/10/24 01:20:40;;;;;;;17.23;3.05;;;;;;;;;;5063504;28;20125;-67
2021/10/24 01:23:09;;;;;;;8.32;2.10;;;;;;;;;;5063648;28;20080;-67
2021/10/24 01:25:35;;;;;;;15.68;3.17;;;;;;;;;;5066473;28;20076;-67
2021/10/24 01:28:02;;;;;;;13.73;2.60;;;;;;;;;;5066253;28;20087;-67
2021/10/24 01:30:28;;;;;;;17.60;2.63;;;;;;;;;;5063707;28;20087;-67
2021/10/24 01:32:55;;;;;;;21.73;2.80;;;;;;;;;;5070956;28;20135;-67
2021/10/24 01:35:21;;;;;;;16.48;2.30;;;;;;;;;;5063818;28;20129;-67
2021/10/24 01:37:48;;;;;;;21.17;2.70;;;;;;;;;;5064015;28;20087;-67
2021/10/24 01:40:15;;;;;;;12.80;2.33;;;;;;;;;;5066262;28;20244;-67
2021/10/24 01:42:52;;;;;;;14.55;2.20;;;;;;;;;;5065294;28;20747;-67
2021/10/24 01:45:19;;;;;;;13.15;2.25;;;;;;;;;;5067266;28;20053;-67
2021/10/24 01:47:46;;;;;;;12.15;2.03;;;;;;;;;;5066338;28;20056;-67
2021/10/24 01:50:13;;;;;;;16.88;3.05;;;;;;;;;;5067618;28;20071;-68
2021/10/24 01:52:41;;;;;;;11.00;2.40;;;;;;;;;;5063151;28;20092;-67
2021/10/24 01:55:11;;;;;;;10.85;2.80;;;;;;;;;;5065014;28;20295;-67
2021/10/24 01:57:39;;;;;;;7.60;2.00;;;;;;;;;;5063352;28;20562;-67
2021/10/24 02:00:06;;;;;;;12.73;2.80;;;;;;;;;;5065929;28;20124;-67
2021/10/24 02:02:33;;;;;;;9.17;2.10;;;;;;;;;;5064828;28;20167;-67
2021/10/24 02:05:00;;;;;;;8.60;2.30;;;;;;;;;;5068957;28;20131;-67
2021/10/24 02:07:27;;;;;;;5.15;1.90;;;;;;;;;;5065340;28;20080;-67
2021/10/24 02:09:53;;;;;;;14.43;2.17;;;;;;;;;;5066264;28;20052;-67
2021/10/24 02:12:20;;;;;;;8.43;1.85;;;;;;;;;;5065241;28;20084;-67
2021/10/24 02:14:46;;;;;;;7.32;1.80;;;;;;;;;;5066471;28;20443;-67
2021/10/24 02:17:13;;;;;;;10.95;1.70;;;;;;;;;;5062833;28;20564;-67
2021/10/24 02:19:39;;;;;;;8.38;1.90;;;;;;;;;;5057457;28;20095;-67
2021/10/24 02:22:07;;;;;;;13.15;2.65;;;;;;;;;;5068533;28;20095;-67
2021/10/24 02:24:34;;;;;;;10.43;2.25;;;;;;;;;;5066612;28;20606;-67
2021/10/24 02:27:00;;;;;;;20.05;2.75;;;;;;;;;;5068159;28;20491;-67
2021/10/24 02:29:27;;;;;;;11.68;2.13;;;;;;;;;;5067246;28;20099;-67
2021/10/24 02:31:53;;;;;;;19.13;2.85;;;;;;;;;;5063510;28;20048;-67
2021/10/24 02:34:19;;;;;;;12.77;3.17;;;;;;;;;;5064372;28;20083;-67
2021/10/24 02:36:47;;;;;;;;;;;;;;;;;;5065224;28;20083;-67
2021/10/24 02:39:13;;;;;;;15.23;2.08;;;;;;;;;;5063453;28;19952;-67
2021/10/24 02:41:40;;;;;;;11.20;2.38;;;;;;;;;;5064525;28;20467;-67
2021/10/24 02:44:07;;;;;;;9.97;2.00;;;;;;;;;;5065047;28;20131;-67
2021/10/24 02:46:33;;;;;;;12.03;2.37;;;;;;;;;;5062292;28;20394;-67
2021/10/24 02:49:00;;;;;;;13.20;2.55;;;;;;;;;;5056533;28;20336;-67
2021/10/24 02:51:27;;;;;;;9.32;1.60;;;;;;;;;;5064976;28;20049;-67
2021/10/24 02:53:53;;;;;;;7.35;2.03;;;;;;;;;;5068701;28;20055;-67
2021/10/24 02:56:20;;;;;;;15.88;2.40;;;;;;;;;;5062229;28;20049;-67
2021/10/24 02:58:46;;;;;;;14.73;2.40;;;;;;;;;;5061953;28;20084;-67
2021/10/24 03:01:13;;;;;;;11.98;2.22;;;;;;;;;;5059852;28;20382;-67
2021/10/24 03:03:39;;;;;;;16.27;3.25;;;;;;;;;;5066123;28;20132;-67
2021/10/24 03:06:06;;;;;;;10.90;1.97;;;;;;;;;;5055084;28;20072;-67
2021/10/24 03:08:32;;;;;;;9.27;2.30;;;;;;;;;;5062027;28;20167;-67
2021/10/24 03:10:59;;;;;;;8.88;1.88;;;;;;;;;;5062802;28;20102;-67
2021/10/24 03:13:26;;;;;;;10.63;2.40;;;;;;;;;;5056852;28;20552;-67
2021/10/24 03:15:53;;;;;;;7.63;1.98;;;;;;;;;;5059114;28;20139;-67
2021/10/24 03:18:20;;;;;;;11.05;2.70;;;;;;;;;;5055185;28;20534;-66
2021/10/24 03:20:47;;;;;;;8.68;2.28;;;;;;;;;;5059984;28;20095;-67
2021/10/24 03:23:13;;;;;;;10.55;2.10;;;;;;;;;;5061992;28;20132;-67
2021/10/24 03:25:40;;;;;;;8.15;2.28;;;;;;;;;;5064704;28;20147;-67
2021/10/24 03:28:07;;;;;;;9.73;1.90;;;;;;;;;;5061077;28;20145;-67
2021/10/24 03:30:33;;;;;;;8.75;1.60;;;;;;;;;;5064492;28;20132;-67
2021/10/24 03:32:59;;;;;;;14.98;2.70;;;;;;;;;;5062015;28;20079;-67
2021/10/24 03:35:26;;;;;;;8.95;2.40;;;;;;;;;;5058460;28;20064;-67
2021/10/24 03:37:53;;;;;;;11.48;2.63;;;;;;;;;;5061941;28;20072;-67
2021/10/24 03:40:19;;;;;;;12.90;2.47;;;;;;;;;;5064603;28;20164;-67
2021/10/24 03:42:46;;;;;;;8.40;2.10;;;;;;;;;;5065763;28;20135;-67
2021/10/24 03:45:12;;;;;;;8.70;2.20;;;;;;;;;;5059206;28;20076;-67
2021/10/24 03:47:39;;;;;;;11.45;2.40;;;;;;;;;;5067243;28;20086;-67
2021/10/24 03:50:05;;;;;;;9.10;2.15;;;;;;;;;;5066165;28;20084;-67
2021/10/24 03:52:32;;;;;;;8.13;2.03;;;;;;;;;;5062690;28;20549;-67
2021/10/24 03:54:58;;;;;;;8.05;2.08;;;;;;;;;;5064263;28;20381;-67
2021/10/24 03:57:25;;;;;;;13.07;2.70;;;;;;;;;;5064589;28;20465;-67
2021/10/24 03:59:52;;;;;;;13.18;2.50;;;;;;;;;;5058345;28;20299;-67
2021/10/24 04:02:18;;;;;;;12.70;2.42;;;;;;;;;;5061415;28;20076;-68
2021/10/24 04:04:45;;;;;;;10.90;2.42;;;;;;;;;;5063402;28;20132;-67
2021/10/24 04:07:11;;;;;;;8.20;1.88;;;;;;;;;;5064679;28;20091;-67
2021/10/24 04:09:38;;;;;;;15.02;2.50;;;;;;;;;;5059782;28;20056;-67
2021/10/24 04:12:05;;;;;;;9.10;2.53;;;;;;;;;;5068660;28;20401;-67
2021/10/24 04:14:31;;;;;;;5.85;1.80;;;;;;;;;;5066710;28;20318;-67
2021/10/24 04:16:58;;;;;;;14.50;2.92;;;;;;;;;;5064555;28;20431;-67
2021/10/24 04:19:25;;;;;;;9.40;2.03;;;;;;;;;;5066547;28;20157;-67
2021/10/24 04:21:52;;;;;;;9.82;3.05;;;;;;;;;;5067662;28;20512;-67
2021/10/24 04:24:18;;;;;;;9.38;2.05;;;;;;;;;;5064656;28;20091;-67
2021/10/24 04:26:45;;;;;;;14.80;2.57;;;;;;;;;;5063695;28;20132;-67
2021/10/24 04:29:11;;;;;;;10.32;2.03;;;;;;;;;;5070515;28;20362;-67
2021/10/24 04:31:38;;;;;;;9.95;2.15;;;;;;;;;;5069657;28;20076;-67
2021/10/24 04:34:05;;;;;;;11.05;2.10;;;;;;;;;;5064180;28;20072;-67
2021/10/24 04:36:31;;;;;;;16.20;1.92;;;;;;;;;;5063334;28;20090;-67
2021/10/24 04:38:57;;;;;;;12.05;2.22;;;;;;;;;;5064679;28;20076;-67
2021/10/24 04:41:24;;;;;;;12.20;2.55;;;;;;;;;;5062928;28;20076;-67
2021/10/24 04:43:51;;;;;;;13.32;2.83;;;;;;;;;;5066070;28;20072;-67
2021/10/24 04:46:17;;;;;;;10.43;2.37;;;;;;;;;;5058195;28;20049;-67
2021/10/24 04:48:44;;;;;;;10.60;2.20;;;;;;;;;;5066608;28;20135;-67
2021/10/24 04:51:11;;;;;;;12.85;2.50;;;;;;;;;;5066343;28;20132;-67
2021/10/24 04:53:37;;;;;;;9.65;2.10;;;;;;;;;;5063999;28;20504;-67
2021/10/24 04:56:05;;;;;;;8.55;2.08;;;;;;;;;;5066331;28;20131;-67
2021/10/24 04:58:31;;;;;;;9.43;2.33;;;;;;;;;;5066737;28;20090;-67
2021/10/24 05:00:58;;;;;;;13.20;2.53;;;;;;;;;;5043906;28;20075;-67
2021/10/24 05:03:24;;;;;;;33.08;2.95;;;;;;;;;;5066784;28;20041;-67
2021/10/24 05:05:51;;;;;;;14.18;2.30;;;;;;;;;;5066206;28;20080;-67
2021/10/24 05:08:17;;;;;;;10.70;2.60;;;;;;;;;;5063434;28;20088;-67
2021/10/24 05:10:44;;;;;;;12.97;2.13;;;;;;;;;;5066277;28;20090;-67
2021/10/24 05:13:10;;;;;;;22.08;3.10;;;;;;;;;;5068777;28;20370;-67
2021/10/24 05:15:36;;;;;;;8.27;2.67;;;;;;;;;;5061400;28;20053;-67
2021/10/24 05:18:03;;;;;;;12.30;2.05;;;;;;;;;;5066652;28;20086;-67
2021/10/24 05:20:30;;;;;;;8.32;2.30;;;;;;;;;;5064823;28;20178;-67
2021/10/24 05:22:56;;;;;;;15.13;2.50;;;;;;;;;;5064665;28;20123;-67
2021/10/24 05:25:43;;;;;;;11.70;2.88;;;;;;;;;;5057469;28;20123;-67
2021/10/24 05:28:10;;;;;;;12.45;2.53;;;;;;;;;;5067965;28;20083;-67
2021/10/24 05:30:36;;;;;;;10.35;2.35;;;;;;;;;;5061003;28;20071;-67
2021/10/24 05:33:03;;;;;;;15.88;2.50;;;;;;;;;;5063158;28;20052;-67
2021/10/24 05:35:30;;;;;;;18.02;2.78;;;;;;;;;;5062641;28;20140;-67
2021/10/24 05:37:57;;;;;;;13.48;2.65;;;;;;;;;;5065379;28;20068;-67
2021/10/24 05:40:23;;;;;;;14.02;2.35;;;;;;;;;;5062973;28;20623;-67
2021/10/24 05:42:50;;;;;;;14.70;2.25;;;;;;;;;;5064559;28;20084;-67
2021/10/24 05:45:16;;;;;;;11.30;2.00;;;;;;;;;;5061660;28;20084;-67
2021/10/24 05:47:43;;;;;;;12.52;2.83;;;;;;;;;;5065136;28;20136;-67
2021/10/24 05:50:09;;;;;;;17.92;2.75;;;;;;;;;;5064023;28;20687;-67
2021/10/24 05:52:36;;;;;;;12.68;3.28;;;;;;;;;;5066212;28;20139;-67
2021/10/24 05:55:04;;;;;;;16.17;2.80;;;;;;;;;;5061915;28;20127;-67
2021/10/24 05:57:30;;;;;;;;;;;;;;;;;;5061549;28;20476;-67
2021/10/24 05:59:57;;;;;;;14.55;2.78;;;;;;;;;;5063250;28;20019;-67
2021/10/24 06:02:23;;;;;;;10.65;2.60;;;;;;;;;;5062547;28;20084;-67
2021/10/24 06:04:50;;;;;;;15.20;2.25;;;;;;;;;;5059975;28;20049;-67
2021/10/24 06:07:16;;;;;;;9.30;2.38;;;;;;;;;;5063931;28;20087;-67
2021/10/24 06:09:50;;;;;;;19.23;3.28;;;;;;;;;;5064914;28;20076;-67
2021/10/24 06:15:02;;;;;;;15.70;3.90;;;;;;;;;;5059834;28;20448;-67
2021/10/24 06:17:29;;;;;;;15.25;2.85;;;;;;;;;;5059243;28;20493;-67
2021/10/24 06:19:56;;;;;;;19.02;3.13;;;;;;;;;;5062041;28;20135;-67
2021/10/24 06:22:22;;;;;;;22.40;4.70;;;;;;;;;;5062196;28;20068;-67
2021/10/24 06:24:49;;;;;;;16.40;3.03;;;;;;;;;;5064929;28;20140;-67
2021/10/24 06:27:15;;;;;;;12.45;3.08;;;;;;;;;;5061783;28;20084;-67
2021/10/24 06:29:42;;;;;;;14.10;2.78;;;;;;;;;;5065440;28;20135;-67
2021/10/24 06:32:09;;;;;;;13.27;2.63;;;;;;;;;;5060549;28;20080;-67
2021/10/24 06:34:35;;;;;;;10.43;2.30;;;;;;;;;;5064675;28;20041;-67
2021/10/24 06:37:02;;;;;;;21.00;2.92;;;;;;;;;;5071160;28;20139;-67
2021/10/24 06:39:29;;;;;;;21.07;3.73;;;;;;;;;;5069794;28;20127;-67
2021/10/24 06:41:55;;;;;;;9.15;2.40;;;;;;;;;;5058906;28;20722;-68
2021/10/24 06:44:22;;;;;;;17.08;2.65;;;;;;;;;;5062433;28;20040;-67
2021/10/24 06:46:48;;;;;;;16.02;2.80;;;;;;;;;;5061552;28;20631;-67
2021/10/24 06:49:15;;;;;;;12.65;3.03;;;;;;;;;;5063209;28;20091;-67
2021/10/24 06:51:41;;;;;;;26.40;2.92;;;;;;;;;;5061195;28;20076;-67
2021/10/24 06:54:08;;;;;;;15.85;3.33;;;;;;;;;;5057708;28;20087;-67
2021/10/24 06:56:34;;;;;;;17.83;3.27;;;;;;;;;;5062184;28;20076;-67
2021/10/24 06:59:01;;;;;;;13.93;2.90;;;;;;;;;;5062209;28;20356;-67
2021/10/24 07:01:28;;;;;;;11.02;3.10;;;;;;;;;;5060078;28;20080;-67
2021/10/24 07:03:55;;;;;;;;;;;;;;;;;;5061418;28;20457;-67
2021/10/24 07:06:23;;;;;;;20.13;3.30;;;;;;;;;;5060630;28;20438;-67
2021/10/24 07:08:50;;;;;;;9.90;2.53;;;;;;;;;;5063885;28;20060;-67
2021/10/24 07:11:17;;;;;;;16.77;3.20;;;;;;;;;;5062876;28;20127;-67
2021/10/24 07:13:43;;;;;;;12.52;3.20;;;;;;;;;;5066942;28;20076;-67
2021/10/24 07:16:11;;;;;;;19.38;2.70;;;;;;;;;;5058846;28;20567;-68
2021/10/24 07:18:37;;;;;;;22.30;3.40;;;;;;;;;;5061663;28;20049;-67
2021/10/24 07:21:04;;;;;;;16.33;2.63;;;;;;;;;;5062256;28;20125;-68
2021/10/24 07:23:31;;;;;;;20.02;3.35;;;;;;;;;;5057331;28;20068;-67
2021/10/24 07:25:58;;;;;;;18.83;3.38;;;;;;;;;;5063149;28;20074;-67
2021/10/24 07:28:24;;;;;;;20.40;3.35;;;;;;;;;;5057520;28;20224;-68
2021/10/24 07:30:56;;;;;;;13.07;2.67;;;;;;;;;;5059816;28;20504;-67
2021/10/24 07:33:23;;;;;;;21.80;3.80;;;;;;;;;;5059624;28;20048;-67
2021/10/24 07:35:53;;;;;;;23.75;3.53;;;;;;;;;;5059934;28;20040;-68
2021/10/24 07:38:20;;;;;;;18.83;3.40;;;;;;;;;;5058424;28;20135;-67
2021/10/24 07:40:49;;;;;;;13.45;3.00;;;;;;;;;;5063969;28;20087;-68
2021/10/24 07:43:17;;;;;;;19.10;3.42;;;;;;;;;;5058365;28;20091;-68
2021/10/24 07:45:45;;;;;;;19.70;3.53;;;;;;;;;;5062344;28;20128;-68
2021/10/24 07:48:11;;;;;;;13.43;3.38;;;;;;;;;;5061465;28;20131;-68
2021/10/24 07:50:38;;;;;;;27.42;3.85;;;;;;;;;;5061626;28;20068;-67
2021/10/24 07:53:04;;;;;;;14.27;3.13;;;;;;;;;;5061391;28;20143;-68
2021/10/24 07:55:31;;;;;;;20.15;2.80;;;;;;;;;;5062750;28;20036;-68
2021/10/24 07:57:58;;;;;;;14.43;3.17;;;;;;;;;;5053617;28;20076;-68
2021/10/24 08:00:28;;;;;;;15.65;2.85;;;;;;;;;;5051363;28;20048;-68
2021/10/24 08:02:55;;;;;;;23.95;4.25;;;;;;;;;;5066596;28;20420;-67
2021/10/24 08:05:21;;;;;;;17.70;3.13;;;;;;;;;;5059454;28;20095;-68
2021/10/24 08:07:48;;;;;;;21.88;3.63;;;;;;;;;;5060555;28;20343;-68
2021/10/24 08:10:15;;;;;;;12.07;3.20;;;;;;;;;;5063394;28;20131;-67
2021/10/24 08:12:42;;;;;;;21.77;3.40;;;;;;;;;;5063005;28;20076;-68
2021/10/24 08:15:10;;;;;;;26.85;4.03;;;;;;;;;;5062094;28;20045;-68
2021/10/24 08:17:37;;;;;;;16.13;3.25;;;;;;;;;;5060371;28;20504;-67
2021/10/24 08:20:04;;;;;;;18.95;4.35;;;;;;;;;;5056460;28;20103;-68
2021/10/24 08:22:32;;;;;;;16.77;3.53;;;;;;;;;;5063974;28;20140;-68
2021/10/24 08:24:58;;;;;;;;;;;;;;;;;;5057558;28;20579;-67
2021/10/24 08:27:30;;;;;;;18.92;3.38;;;;;;;;;;5061598;28;19971;-67
2021/10/24 08:29:58;;;;;;;16.65;3.65;;;;;;;;;;5050495;28;20083;-67
2021/10/24 08:32:24;;;;;;;15.82;3.20;;;;;;;;;;5061646;28;20080;-68
2021/10/24 08:34:51;;;;;;;26.52;3.70;;;;;;;;;;5065375;28;20119;-68
2021/10/24 08:37:19;;;;;;;21.10;3.60;;;;;;;;;;5060754;28;20078;-68
2021/10/24 08:39:52;;;;;;;22.85;3.60;;;;;;;;;;5062095;28;20131;-68
2021/10/24 08:42:27;;;;;;;22.08;4.07;;;;;;;;;;5062940;28;20079;-68
2021/10/24 08:44:56;;;;;;;16.70;3.67;;;;;;;;;;5060023;28;20128;-68
2021/10/24 08:47:24;;;;;;;23.55;4.43;;;;;;;;;;5057580;28;20102;-68
2021/10/24 08:49:51;;;;;;;21.02;3.60;;;;;;;;;;5064894;28;20092;-68
2021/10/24 08:52:18;;;;;;;19.38;4.55;;;;;;;;;;5065254;28;20174;-68
2021/10/24 08:54:45;;;;;;;21.80;4.00;;;;;;;;;;5065257;28;20135;-68
2021/10/24 08:57:11;;;;;;;22.90;4.85;;;;;;;;;;5066572;28;20044;-68
2021/10/24 08:59:37;;;;;;;25.90;4.85;;;;;;;;;;5062288;28;20045;-68
2021/10/24 09:02:05;;;;;;;21.00;4.65;;;;;;;;;;5068911;28;20072;-68
2021/10/24 09:04:31;;;;;;;22.05;5.05;;;;;;;;;;5065446;28;20048;-68
2021/10/24 09:07:00;;;;;;;24.15;4.90;;;;;;;;;;5067223;28;20080;-68
2021/10/24 09:09:36;;;;;;;23.55;4.93;;;;;;;;;;5063199;28;20045;-68
2021/10/24 09:12:10;;;;;;;26.60;6.03;;;;;;;;;;5064482;28;20045;-68
2021/10/24 09:14:36;;;;;;;26.20;5.82;;;;;;;;;;5060073;28;20076;-68
2021/10/24 09:17:04;;;;;;;33.05;6.68;;;;;;;;;;5064268;28;20947;-68
2021/10/24 09:19:35;;;;;;;24.67;7.10;;;;;;;;;;5062962;28;20071;-68
2021/10/24 09:22:15;;;;;;;32.65;7.15;;;;;;;;;;5065479;28;20089;-68
2021/10/24 09:25:01;;;;;;;22.95;5.97;;;;;;;;;;5068416;28;20397;-68
2021/10/24 09:27:29;;;;;;;23.20;6.35;;;;;;;;;;5064191;28;20069;-68
2021/10/24 09:29:55;;;;;;;20.38;6.93;;;;;;;;;;5067641;28;20049;-68
2021/10/24 09:32:39;;;;;;;25.38;7.20;;;;;;;;;;5061987;28;20076;-68
2021/10/24 09:35:06;;;;;;;27.95;7.25;;;;;;;;;;5061246;28;20135;-68
2021/10/24 09:37:42;;;;;;;31.08;6.93;;;;;;;;;;5067529;28;20068;-68
2021/10/24 09:40:12;;;;;;;23.80;6.22;;;;;;;;;;5060255;28;20041;-69
2021/10/24 09:42:39;;;;;;;28.48;6.40;;;;;;;;;;5067748;28;20084;-70
2021/10/24 09:45:07;;;;;;;25.92;5.80;;;;;;;;;;5062478;28;20044;-68
2021/10/24 09:47:37;;;;;;;23.50;6.32;;;;;;;;;;5065189;28;20077;-68
2021/10/24 09:50:05;;;;;;;31.60;6.35;;;;;;;;;;5063120;28;20135;-68
2021/10/24 09:52:32;;;;;;;26.58;5.78;;;;;;;;;;5066485;28;20044;-69
2021/10/24 09:54:59;;;;;;;26.27;6.60;;;;;;;;;;5064246;28;20049;-68
2021/10/24 09:57:25;;;;;;;33.30;6.20;;;;;;;;;;5062750;28;20086;-69
2021/10/24 09:59:53;;;;;;;22.05;5.22;;;;;;;;;;5061827;28;20484;-68
2021/10/24 10:02:24;;;;;;;22.10;5.53;;;;;;;;;;5057804;28;20041;-69
2021/10/24 10:04:51;;;;;;;16.27;3.70;;;;;;;;;;5065363;28;20063;-69
2021/10/24 10:07:17;;;;;;;17.45;4.75;;;;;;;;;;5065446;28;20083;-69
2021/10/24 10:09:47;;;;;;;24.23;4.63;;;;;;;;;;5064075;28;20045;-69
2021/10/24 10:12:17;;;;;;;25.13;4.75;;;;;;;;;;5064116;28;20474;-68
2021/10/24 10:14:45;;;;;;;23.48;4.55;;;;;;;;;;5064380;28;20087;-68
2021/10/24 10:17:14;;;;;;;17.08;4.20;;;;;;;;;;5063782;28;20122;-68
2021/10/24 10:19:41;;;;;;;18.80;4.47;;;;;;;;;;5065924;28;20072;-68
2021/10/24 10:22:25;;;;;;;19.02;4.47;;;;;;;;;;5062875;28;20132;-68
2021/10/24 10:24:55;;;;;;;14.73;4.15;;;;;;;;;;5066960;28;20131;-68
2021/10/24 10:27:27;;;;;;;17.17;3.47;;;;;;;;;;5062971;28;20135;-68
2021/10/24 10:30:01;;;;;;;17.88;4.47;;;;;;;;;;5067043;28;20072;-68
2021/10/24 10:32:35;;;;;;;12.27;3.47;;;;;;;;;;5066311;28;20056;-68
2021/10/24 10:35:04;;;;;;;19.85;3.70;;;;;;;;;;5063390;28;20467;-69
2021/10/24 10:37:48;;;;;;;18.77;4.13;;;;;;;;;;5068773;28;20044;-68
2021/10/24 10:40:16;;;;;;;27.45;3.83;;;;;;;;;;5065886;28;20496;-68
2021/10/24 10:42:44;;;;;;;15.45;3.90;;;;;;;;;;5065416;28;20132;-68
2021/10/24 10:45:16;;;;;;;22.60;3.83;;;;;;;;;;5066397;28;20143;-68
2021/10/24 10:48:00;;;;;;;17.70;3.50;;;;;;;;;;5060656;28;20202;-68
2021/10/24 10:50:39;;;;;;;21.00;4.22;;;;;;;;;;5067623;28;20094;-68
2021/10/24 10:53:06;;;;;;;17.38;3.47;;;;;;;;;;5063342;28;20055;-68
2021/10/24 10:55:52;;;;;;;15.02;3.45;;;;;;;;;;5059952;28;20139;-68
2021/10/24 10:58:28;;;;;;;20.13;4.50;;;;;;;;;;5056237;28;20049;-68
2021/10/24 11:00:54;;;;;;;32.05;5.15;;;;;;;;;;5064587;28;20501;-69
2021/10/24 11:03:41;;;;;;;26.00;5.10;;;;;;;;;;5062152;28;20059;-68
2021/10/24 11:06:09;;;;;;;24.50;4.35;;;;;;;;;;5065642;28;20091;-68
2021/10/24 11:08:55;;;;;;;26.40;4.57;;;;;;;;;;5062581;28;20135;-69
2021/10/24 11:11:47;;;;;;;25.98;4.93;;;;;;;;;;5063608;28;20127;-68
2021/10/24 11:14:15;;;;;;;25.67;5.00;;;;;;;;;;5060413;28;20493;-68
2021/10/24 11:16:42;;;;;;;23.13;5.45;;;;;;;;;;5064605;28;20080;-68
2021/10/24 11:19:09;;;;;;;;;;;;;;;;;;5059320;28;20102;-69
2021/10/24 11:21:36;;;;;;;21.30;4.63;;;;;;;;;;5055588;28;19967;-66
2021/10/24 11:24:03;;;;;;;27.95;5.28;;;;;;;;;;5066448;28;20080;-66
2021/10/24 11:26:29;;;;;;;21.23;4.85;;;;;;;;;;5061557;28;20077;-66
2021/10/24 11:28:56;;;;;;;30.27;6.53;;;;;;;;;;5064894;28;20136;-66
2021/10/24 11:31:23;;;;;;;19.85;5.15;;;;;;;;;;5065006;28;20334;-67
2021/10/24 11:33:53;;;;;;;36.88;4.95;;;;;;;;;;5063628;28;20045;-67
2021/10/24 11:36:24;;;;;;;23.55;4.60;;;;;;;;;;5061250;28;20041;-66
2021/10/24 11:38:55;;;;;;;20.95;4.97;;;;;;;;;;5061140;28;20041;-66
2021/10/24 11:41:22;;;;;;;23.23;4.63;;;;;;;;;;5059571;28;20131;-66
2021/10/24 11:44:02;;;;;;;27.65;5.22;;;;;;;;;;5064509;28;20048;-66
2021/10/24 11:46:29;;;;;;;18.33;4.90;;;;;;;;;;5065389;28;20137;-67
2021/10/24 11:49:01;;;;;;;24.40;5.00;;;;;;;;;;5056699;28;20548;-66
2021/10/24 11:51:28;;;;;;;18.20;4.13;;;;;;;;;;5063919;28;20045;-67
2021/10/24 11:53:54;;;;;;;18.63;4.53;;;;;;;;;;5061934;28;20745;-67
2021/10/24 12:01:41;;;;;;;17.73;4.60;;;;;;;;;;5062616;28;20566;-68
2021/10/24 12:04:09;;;;;;;24.33;4.75;;;;;;;;;;5062406;28;20044;-67
2021/10/24 12:06:36;;;;;;;;;;;;;;;;;;5065202;28;20084;-67
2021/10/24 12:09:04;;;;;;;16.17;3.75;;;;;;;;;;5063777;28;20023;-68
2021/10/24 12:11:42;;;;;;;18.98;3.47;;;;;;;;;;5058833;28;20531;-67
2021/10/24 12:14:09;;;;;;;20.60;4.37;;;;;;;;;;5058356;28;20067;-67
2021/10/24 12:16:37;;;;;;;19.38;4.00;;;;;;;;;;5063090;28;21120;-68
2021/10/24 12:19:04;;;;;;;;;;;;;;;;;;5058241;28;20071;-67
2021/10/24 12:21:33;;;;;;;21.55;4.40;;;;;;;;;;5060025;28;20265;-67
2021/10/24 12:24:35;;;;;;;19.47;4.63;;;;;;;;;;5062849;28;20136;-67
2021/10/24 12:27:05;;;;;;;18.33;4.18;;;;;;;;;;4983161;28;20372;-67
2021/10/24 12:29:32;;;;;;;14.38;5.03;;;;;;;;;;5047351;28;20141;-67
2021/10/24 12:32:06;;;;;;;16.35;3.78;;;;;;;;;;5066057;28;20144;-67
2021/10/24 12:34:34;;;;;;;19.42;3.90;;;;;;;;;;5059340;28;20070;-67
2021/10/24 12:37:00;;;;;;;19.83;4.00;;;;;;;;;;5062081;28;20140;-67
2021/10/24 12:39:27;;;;;;;19.45;4.10;;;;;;;;;;5061303;28;20144;-67
2021/10/24 12:41:53;;;;;;;15.57;3.80;;;;;;;;;;5066491;28;20127;-67
2021/10/24 12:44:23;;;;;;;20.70;4.80;;;;;;;;;;5061967;28;20513;-67
2021/10/24 12:46:50;;;;;;;23.55;4.55;;;;;;;;;;5066968;28;20097;-67
2021/10/24 12:49:20;;;;;;;22.52;5.53;;;;;;;;;;5065456;28;20131;-68
2021/10/24 12:51:48;;;;;;;17.17;4.68;;;;;;;;;;5067967;28;20080;-68
2021/10/24 12:54:27;;;;;;;19.98;4.22;;;;;;;;;;5066439;28;20464;-67
2021/10/24 12:56:54;;;;;;;18.10;4.05;;;;;;;;;;5061798;28;20132;-67
2021/10/24 12:59:20;;;;;;;21.83;4.75;;;;;;;;;;5062092;28;20116;-68
2021/10/24 13:01:48;;;;;;;20.55;4.32;;;;;;;;;;5063105;28;20106;-67
2021/10/24 13:04:14;;;;;;;;;;;;;;;;;;5067521;28;20048;-68
2021/10/24 13:06:41;;;;;;;18.52;4.65;;;;;;;;;;5070503;28;19967;-67
2021/10/24 13:09:07;;;;;;;18.80;4.80;;;;;;;;;;5065482;28;20048;-67
2021/10/24 13:11:34;;;;;;;18.85;3.95;;;;;;;;;;5065302;28;20087;-67
2021/10/24 13:14:00;;;;;;;22.45;5.25;;;;;;;;;;5066973;28;20040;-68
2021/10/24 13:16:27;;;;;;;20.77;4.67;;;;;;;;;;5068171;28;20720;-67
2021/10/24 13:18:54;;;;;;;17.55;4.40;;;;;;;;;;5064893;28;20425;-67
2021/10/24 13:24:00;;;;;;;25.30;4.72;;;;;;;;;;5068524;28;20132;-68
2021/10/24 13:26:31;;;;;;;16.80;4.85;;;;;;;;;;5058909;28;20041;-67
2021/10/24 13:28:57;;;;;;;20.13;4.75;;;;;;;;;;5063605;28;20045;-67
2021/10/24 13:31:24;;;;;;;15.70;5.23;;;;;;;;;;5060217;28;20106;-67
2021/10/24 13:33:52;;;;;;;17.85;4.43;;;;;;;;;;5061192;28;20532;-68
2021/10/24 13:36:18;;;;;;;13.90;4.65;;;;;;;;;;5064441;28;20410;-67
2021/10/24 13:38:45;;;;;;;15.70;4.85;;;;;;;;;;5067368;28;20094;-68
2021/10/24 13:41:12;;;;;;;20.73;5.75;;;;;;;;;;5069954;28;20052;-67
2021/10/24 13:43:38;;;;;;;20.77;5.15;;;;;;;;;;5065881;28;20485;-68
2021/10/24 13:46:05;;;;;;;16.73;5.53;;;;;;;;;;5064207;28;20095;-67
2021/10/24 13:48:31;;;;;;;17.60;5.13;;;;;;;;;;5066100;28;20127;-68
2021/10/24 13:50:58;;;;;;;20.40;5.82;;;;;;;;;;5062091;28;20594;-67
2021/10/24 13:53:24;;;;;;;21.57;5.97;;;;;;;;;;5055994;28;20160;-67
2021/10/24 13:55:51;;;;;;;22.75;6.18;;;;;;;;;;5063357;28;20084;-68
2021/10/24 13:58:17;;;;;;;19.08;5.63;;;;;;;;;;5062082;28;20087;-68
2021/10/24 14:00:44;;;;;;;22.92;5.82;;;;;;;;;;5065545;28;20708;-67
2021/10/24 14:03:11;;;;;;;17.38;6.07;;;;;;;;;;5062459;28;20048;-68
2021/10/24 14:05:37;;;;;;;18.85;5.45;;;;;;;;;;5062762;28;20081;-68
2021/10/24 14:08:04;;;;;;;23.83;6.22;;;;;;;;;;5064002;28;20084;-67
2021/10/24 14:10:31;;;;;;;23.13;6.47;;;;;;;;;;5064313;28;20079;-67
2021/10/24 14:12:58;;;;;;;19.67;6.07;;;;;;;;;;5061039;28;20079;-67
2021/10/24 14:15:25;;;;;;;22.00;6.15;;;;;;;;;;5062000;28;20087;-67
2021/10/24 14:17:51;;;;;;;26.23;6.68;;;;;;;;;;5065496;28;20078;-67
2021/10/24 14:20:18;;;;;;;17.00;5.80;;;;;;;;;;5066543;28;20114;-67
2021/10/24 14:22:47;;;;;;;17.88;5.70;;;;;;;;;;5063366;28;20528;-67
2021/10/24 14:25:14;;;;;;;18.00;5.95;;;;;;;;;;5061860;28;20073;-68
2021/10/24 14:27:40;;;;;;;25.50;5.88;;;;;;;;;;5064104;28;20123;-68
2021/10/24 14:30:08;;;;;;;25.20;6.18;;;;;;;;;;5059346;28;20466;-67
2021/10/24 14:32:35;;;;;;;27.67;6.72;;;;;;;;;;5064606;28;20044;-67
2021/10/24 14:35:02;;;;;;;17.00;5.70;;;;;;;;;;5064238;28;20155;-67
2021/10/24 14:37:29;;;;;;;;;;;;;;;;;;5066898;28;20132;-67
2021/10/24 14:39:56;;;;;;;26.35;7.03;;;;;;;;;;5062290;28;22129;-67
2021/10/24 14:42:22;;;;;;;25.50;6.65;;;;;;;;;;5067624;28;20326;-67
2021/10/24 14:44:49;;;;;;;28.65;7.38;;;;;;;;;;5067115;28;20119;-67
2021/10/24 14:47:15;;;;;;;30.85;6.82;;;;;;;;;;5057487;28;20048;-67
2021/10/24 14:49:42;;;;;;;22.40;5.95;;;;;;;;;;5062589;28;20518;-67
2021/10/24 14:52:09;;;;;;;25.52;7.13;;;;;;;;;;5062132;28;20128;-67